createdAt,value
2023-03-04T00:00:02.355Z,2.78
2023-03-04T00:02:37.337Z,2.60
2023-03-04T00:05:04.757Z,2.85
2023-03-04T00:07:31.622Z,2.70
2023-03-04T00:09:58.402Z,2.83
2023-03-04T00:12:31.636Z,3.20
2023-03-04T00:15:05.112Z,2.65
2023-03-04T00:17:32.438Z,2.53
2023-03-04T00:19:59.441Z,2.90
2023-03-04T00:22:26.285Z,2.60
2023-03-04T00:24:53.048Z,2.55
2023-03-04T00:27:19.833Z,2.38
2023-03-04T00:29:46.796Z,2.72
2023-03-04T00:32:13.811Z,3.33
2023-03-04T00:34:40.704Z,3.13
2023-03-04T00:37:07.538Z,3.00
2023-03-04T00:39:34.339Z,2.80
2023-03-04T00:42:01.131Z,2.50
2023-03-04T00:44:27.902Z,2.63
2023-03-04T00:46:54.735Z,3.10
2023-03-04T00:49:22.005Z,3.03
2023-03-04T00:51:48.987Z,2.42
2023-03-04T00:54:15.788Z,2.53
2023-03-04T00:56:42.565Z,2.25
2023-03-04T00:59:12.341Z,2.75
2023-03-04T01:01:39.361Z,2.35
2023-03-04T01:04:06.281Z,2.33
2023-03-04T01:06:33.197Z,2.95
2023-03-04T01:08:59.993Z,1.92
2023-03-04T01:11:26.835Z,2.38
2023-03-04T01:13:53.701Z,2.35
2023-03-04T01:16:20.548Z,2.20
2023-03-04T01:18:48.186Z,2.10
2023-03-04T01:21:15.050Z,2.13
2023-03-04T01:23:41.960Z,2.20
2023-03-04T01:26:08.835Z,2.72
2023-03-04T01:28:35.999Z,2.10
2023-03-04T01:31:03.716Z,2.80
2023-03-04T01:33:31.601Z,2.05
2023-03-04T01:35:58.584Z,2.30
2023-03-04T01:38:26.252Z,2.35
2023-03-04T01:40:54.243Z,2.30
2023-03-04T01:43:26.249Z,2.20
2023-03-04T01:45:55.652Z,2.05
2023-03-04T01:48:28.108Z,1.95
2023-03-04T01:50:55.135Z,2.35
2023-03-04T01:53:26.642Z,2.72
2023-03-04T01:56:02.431Z,2.35
2023-03-04T01:58:32.604Z,1.52
2023-03-04T02:00:59.614Z,1.90
2023-03-04T02:03:27.672Z,1.70
2023-03-04T02:05:56.436Z,2.40
2023-03-04T02:08:25.125Z,2.10
2023-03-04T02:10:52.632Z,1.92
2023-03-04T02:13:19.808Z,1.77
2023-03-04T02:15:48.504Z,2.08
2023-03-04T02:18:22.961Z,1.58
2023-03-04T02:21:01.915Z,1.50
2023-03-04T02:23:50.644Z,1.65
2023-03-04T02:26:24.888Z,1.48
2023-03-04T02:28:56.351Z,1.75
2023-03-04T02:31:34.602Z,2.13
2023-03-04T02:34:18.289Z,1.98
2023-03-04T02:36:47.647Z,2.22
2023-03-04T02:39:21.368Z,2.10
2023-03-04T02:41:55.493Z,1.73
2023-03-04T02:44:29.811Z,1.40
2023-03-04T02:46:59.376Z,1.52
2023-03-04T02:49:31.246Z,2.47
2023-03-04T02:52:03.362Z,1.58
2023-03-04T02:54:31.880Z,1.70
2023-03-04T02:57:03.008Z,1.30
2023-03-04T02:59:32.746Z,1.73
2023-03-04T03:01:59.891Z,1.77
2023-03-04T03:04:28.105Z,2.20
2023-03-04T03:06:55.529Z,1.60
2023-03-04T03:09:22.876Z,1.88
2023-03-04T03:11:49.947Z,2.00
2023-03-04T03:14:17.093Z,1.65
2023-03-04T03:16:43.962Z,1.63
2023-03-04T03:19:11.691Z,1.55
2023-03-04T03:21:39.531Z,2.20
2023-03-04T03:24:06.558Z,1.55
2023-03-04T03:26:33.475Z,2.00
2023-03-04T03:29:00.339Z,1.75
2023-03-04T03:31:28.448Z,1.67
2023-03-04T03:33:55.308Z,1.45
2023-03-04T03:36:22.289Z,2.40
2023-03-04T03:38:49.129Z,2.00
2023-03-04T03:41:15.921Z,2.10
2023-03-04T03:43:42.643Z,2.03
2023-03-04T03:46:09.456Z,1.60
2023-03-04T03:48:36.279Z,1.60
2023-03-04T03:51:03.244Z,1.85
2023-03-04T03:53:30.083Z,1.65
2023-03-04T03:55:56.884Z,2.28
2023-03-04T03:58:23.734Z,2.03
2023-03-04T04:00:50.563Z,2.10
2023-03-04T04:03:18.099Z,1.92
2023-03-04T04:05:44.919Z,1.55
2023-03-04T04:08:15.549Z,1.60
2023-03-04T04:10:43.071Z,1.65
2023-03-04T04:13:10.848Z,2.20
2023-03-04T04:15:38.736Z,1.85
2023-03-04T04:18:09.276Z,1.90
2023-03-04T04:20:36.684Z,1.70
2023-03-04T04:23:04.310Z,2.10
2023-03-04T04:25:31.123Z,1.95
2023-03-04T04:27:58.322Z,1.95
2023-03-04T04:30:25.477Z,1.88
2023-03-04T04:32:52.391Z,1.50
2023-03-04T04:35:19.478Z,1.63
2023-03-04T04:37:46.408Z,2.53
2023-03-04T04:40:13.714Z,1.80
2023-03-04T04:42:40.515Z,1.98
2023-03-04T04:45:08.388Z,1.65
2023-03-04T04:47:35.344Z,1.40
2023-03-04T04:50:02.641Z,1.10
2023-03-04T04:52:29.671Z,1.70
2023-03-04T04:54:56.468Z,1.90
2023-03-04T04:57:23.554Z,1.20
2023-03-04T04:59:50.367Z,1.30
2023-03-04T05:02:17.240Z,2.25
2023-03-04T05:04:44.459Z,1.52
2023-03-04T05:07:11.458Z,1.65
2023-03-04T05:09:38.457Z,1.40
2023-03-04T05:12:05.498Z,1.65
2023-03-04T05:14:32.305Z,1.30
2023-03-04T05:16:59.471Z,1.75
2023-03-04T05:19:26.372Z,1.58
2023-03-04T05:21:53.163Z,1.55
2023-03-04T05:24:20.245Z,1.63
2023-03-04T05:26:47.284Z,1.60
2023-03-04T05:29:14.315Z,1.65
2023-03-04T05:31:41.106Z,1.67
2023-03-04T05:34:07.960Z,2.00
2023-03-04T05:36:34.755Z,1.52
2023-03-04T05:39:01.589Z,1.55
2023-03-04T05:41:28.396Z,1.60
2023-03-04T05:43:56.481Z,1.25
2023-03-04T05:46:25.600Z,1.00
2023-03-04T05:48:54.890Z,1.50
2023-03-04T05:51:22.633Z,2.28
2023-03-04T05:53:50.282Z,1.48
2023-03-04T05:56:20.048Z,1.52
2023-03-04T05:58:47.762Z,1.77
2023-03-04T06:01:15.232Z,1.30
2023-03-04T06:03:43.508Z,1.90
2023-03-04T06:06:11.102Z,1.35
2023-03-04T06:08:38.244Z,1.35
2023-03-04T06:11:05.843Z,2.33
2023-03-04T06:13:33.911Z,1.63
2023-03-04T06:16:01.329Z,1.50
2023-03-04T06:18:29.522Z,1.90
2023-03-04T06:21:02.463Z,1.70
2023-03-04T06:23:30.602Z,1.42
2023-03-04T06:26:01.792Z,1.70
2023-03-04T06:28:29.535Z,1.40
2023-03-04T06:30:58.203Z,1.50
2023-03-04T06:33:25.663Z,1.67
2023-03-04T06:35:57.709Z,2.35
2023-03-04T06:38:25.952Z,2.70
2023-03-04T06:40:55.990Z,1.83
2023-03-04T06:43:23.981Z,1.70
2023-03-04T06:45:51.160Z,1.63
2023-03-04T06:48:18.021Z,1.55
2023-03-04T06:50:45.030Z,1.48
2023-03-04T06:53:11.806Z,1.67
2023-03-04T06:55:38.644Z,1.77
2023-03-04T06:58:05.742Z,2.47
2023-03-04T07:00:32.599Z,1.40
2023-03-04T07:03:00.114Z,1.30
2023-03-04T07:05:27.133Z,1.70
2023-03-04T07:07:54.011Z,1.50
2023-03-04T07:10:21.054Z,1.40
2023-03-04T07:12:48.522Z,1.40
2023-03-04T07:15:15.381Z,1.52
2023-03-04T07:17:42.205Z,1.50
2023-03-04T07:20:10.171Z,1.40
2023-03-04T07:22:37.032Z,1.65
2023-03-04T07:25:05.741Z,1.23
2023-03-04T07:27:32.807Z,1.58
2023-03-04T07:29:59.754Z,1.60
2023-03-04T07:32:27.174Z,2.03
2023-03-04T07:34:53.986Z,1.80
2023-03-04T07:37:20.813Z,2.00
2023-03-04T07:39:47.580Z,1.17
2023-03-04T07:42:14.475Z,1.60
2023-03-04T07:44:42.798Z,1.42
2023-03-04T07:47:09.613Z,1.88
2023-03-04T07:49:37.018Z,1.83
2023-03-04T07:52:05.640Z,2.50
2023-03-04T07:54:32.944Z,1.77
2023-03-04T07:56:59.793Z,1.77
2023-03-04T07:59:26.698Z,2.17
2023-03-04T08:01:53.514Z,1.70
2023-03-04T08:04:20.361Z,2.00
2023-03-04T08:06:48.814Z,2.28
2023-03-04T08:09:15.684Z,1.60
2023-03-04T08:11:43.572Z,2.33
2023-03-04T08:14:12.924Z,1.55
2023-03-04T08:16:39.950Z,2.30
2023-03-04T08:19:07.808Z,1.70
2023-03-04T08:21:34.974Z,1.75
2023-03-04T08:24:08.124Z,1.73
2023-03-04T08:26:43.935Z,1.95
2023-03-04T08:29:21.206Z,1.88
2023-03-04T08:31:50.552Z,1.80
2023-03-04T08:34:19.712Z,1.50
2023-03-04T08:36:47.954Z,2.08
2023-03-04T08:39:18.726Z,1.85
2023-03-04T08:41:47.704Z,1.88
2023-03-04T08:44:15.290Z,1.35
2023-03-04T08:46:44.001Z,1.80
2023-03-04T08:49:13.113Z,2.03
2023-03-04T08:51:40.022Z,1.73
2023-03-04T08:54:07.095Z,1.50
2023-03-04T08:56:34.112Z,2.25
2023-03-04T08:59:01.179Z,2.00
2023-03-04T09:01:28.273Z,1.05
2023-03-04T09:03:55.314Z,1.05
2023-03-04T09:06:22.198Z,1.30
2023-03-04T09:08:49.072Z,1.20
2023-03-04T09:11:16.764Z,1.23
2023-03-04T09:13:44.019Z,1.50
2023-03-04T09:16:14.034Z,1.42
2023-03-04T09:18:42.205Z,1.30
2023-03-04T09:21:10.093Z,1.70
2023-03-04T09:23:38.572Z,1.65
2023-03-04T09:26:19.420Z,1.65
2023-03-04T09:28:46.360Z,1.58
2023-03-04T09:31:14.900Z,2.00
2023-03-04T09:33:43.167Z,1.50
2023-03-04T09:36:13.364Z,1.13
2023-03-04T09:38:41.675Z,2.03
2023-03-04T09:41:17.248Z,1.30
2023-03-04T09:43:48.679Z,1.25
2023-03-04T09:46:38.941Z,1.27
2023-03-04T09:49:07.726Z,1.40
2023-03-04T09:51:54.315Z,1.45
2023-03-04T09:54:34.112Z,1.50
2023-03-04T09:57:21.316Z,1.42
2023-03-04T10:00:21.073Z,1.15
2023-03-04T10:03:05.962Z,1.27
2023-03-04T10:05:41.303Z,1.52
2023-03-04T10:08:41.856Z,1.80
2023-03-04T10:11:23.534Z,1.70
2023-03-04T10:14:11.942Z,1.95
2023-03-04T10:16:49.810Z,1.20
2023-03-04T10:19:31.897Z,1.77
2023-03-04T10:21:59.148Z,1.95
2023-03-04T10:24:30.139Z,1.45
2023-03-04T10:27:06.831Z,2.33
2023-03-04T10:29:34.323Z,1.83
2023-03-04T10:32:01.259Z,1.23
2023-03-04T10:34:28.212Z,1.30
2023-03-04T10:37:00.850Z,1.25
2023-03-04T10:39:41.328Z,2.40
2023-03-04T10:42:14.506Z,2.00
2023-03-04T10:44:53.366Z,1.67
2023-03-04T10:47:20.267Z,1.73
2023-03-04T10:49:56.724Z,1.50
2023-03-04T10:52:41.902Z,1.27
2023-03-04T10:55:22.349Z,1.38
2023-03-04T10:58:04.546Z,1.60
2023-03-04T11:00:34.996Z,1.05
2023-03-04T11:03:30.301Z,1.67
2023-03-04T11:06:18.402Z,1.52
2023-03-04T11:08:54.452Z,1.30
2023-03-04T11:11:44.855Z,1.27
2023-03-04T11:14:29.488Z,1.40
2023-03-04T11:17:04.104Z,1.70
2023-03-04T11:19:40.117Z,1.25
2023-03-04T11:22:07.086Z,0.93
2023-03-04T11:24:37.926Z,0.95
2023-03-04T11:27:36.009Z,1.13
2023-03-04T11:30:46.823Z,1.30
2023-03-04T11:33:52.388Z,1.00
2023-03-04T11:36:34.099Z,1.10
2023-03-04T11:39:05.059Z,1.23
2023-03-04T11:42:02.885Z,1.30
2023-03-04T11:44:31.066Z,1.40
2023-03-04T11:47:33.636Z,1.70
2023-03-04T11:50:28.866Z,1.10
2023-03-04T11:53:26.334Z,1.55
2023-03-04T11:59:17.446Z,1.17
2023-03-04T12:02:13.432Z,1.45
2023-03-04T12:05:06.595Z,1.10
2023-03-04T12:07:57.904Z,1.63
2023-03-04T12:10:42.599Z,1.85
2023-03-04T12:13:35.457Z,1.65
2023-03-04T12:16:17.203Z,1.30
2023-03-04T12:18:56.176Z,1.48
2023-03-04T12:22:01.685Z,1.40
2023-03-04T12:24:52.650Z,1.55
2023-03-04T12:27:28.425Z,1.55
2023-03-04T12:30:41.498Z,1.48
2023-03-04T12:33:49.386Z,1.70
2023-03-04T12:36:46.027Z,1.40
2023-03-04T12:39:47.582Z,1.88
2023-03-04T12:42:45.519Z,1.70
2023-03-04T12:45:40.216Z,2.17
2023-03-04T12:48:19.984Z,1.60
2023-03-04T12:51:28.328Z,1.80
2023-03-04T12:54:19.687Z,1.15
2023-03-04T12:56:57.519Z,1.30
2023-03-04T12:59:28.887Z,1.42
2023-03-04T13:02:26.205Z,1.67
2023-03-04T13:05:17.756Z,1.60
2023-03-04T13:07:59.747Z,2.05
2023-03-04T13:10:26.705Z,1.80
2023-03-04T13:12:59.840Z,2.08
2023-03-04T13:15:32.385Z,1.98
2023-03-04T13:18:27.526Z,1.33
2023-03-04T13:21:12.492Z,1.10
2023-03-04T13:23:40.032Z,1.83
2023-03-04T13:26:34.620Z,1.05
2023-03-04T13:29:13.562Z,1.02
2023-03-04T13:32:12.312Z,1.05
2023-03-04T13:34:43.349Z,0.98
2023-03-04T13:37:37.709Z,1.25
2023-03-04T13:40:37.934Z,1.30
2023-03-04T13:43:26.487Z,0.95
2023-03-04T13:45:53.717Z,0.90
2023-03-04T13:48:30.870Z,0.95
2023-03-04T13:50:59.076Z,1.02
2023-03-04T13:53:49.940Z,1.00
2023-03-04T13:56:27.043Z,0.98
2023-03-04T13:59:24.275Z,1.50
2023-03-04T14:02:02.403Z,1.67
2023-03-04T14:04:42.480Z,1.30
2023-03-04T14:07:28.098Z,1.10
2023-03-04T14:10:20.538Z,1.10
2023-03-04T14:12:56.349Z,1.50
2023-03-04T14:15:27.746Z,1.30
2023-03-04T14:18:02.010Z,1.60
2023-03-04T14:20:38.518Z,1.10
2023-03-04T14:23:25.390Z,1.50
2023-03-04T14:25:52.309Z,1.70
2023-03-04T14:28:21.265Z,1.88
2023-03-04T14:30:54.892Z,1.58
2023-03-04T14:33:26.753Z,1.20
2023-03-04T14:35:59.331Z,1.40
2023-03-04T14:38:36.489Z,1.45
2023-03-04T14:41:11.484Z,2.55
2023-03-04T14:44:01.530Z,2.00
2023-03-04T14:46:40.344Z,1.55
2023-03-04T14:49:12.422Z,1.70
2023-03-04T14:51:56.468Z,1.40
2023-03-04T14:54:41.072Z,0.90
2023-03-04T14:57:29.896Z,1.60
2023-03-04T14:59:56.894Z,1.48
2023-03-04T15:02:39.270Z,1.70
2023-03-04T15:05:25.934Z,1.38
2023-03-04T15:08:04.156Z,1.38
2023-03-04T15:10:38.148Z,1.38
2023-03-04T15:13:09.399Z,1.67
2023-03-04T15:15:47.457Z,1.30
2023-03-04T15:18:26.616Z,1.48
2023-03-04T15:21:19.514Z,1.73
2023-03-04T15:23:47.032Z,2.75
2023-03-04T15:26:14.539Z,2.13
2023-03-04T15:28:42.732Z,1.50
2023-03-04T15:31:22.733Z,1.75
2023-03-04T15:33:49.947Z,1.30
2023-03-04T15:36:21.962Z,1.20
2023-03-04T15:38:53.802Z,1.60
2023-03-04T15:41:25.505Z,1.20
2023-03-04T15:43:54.468Z,1.70
2023-03-04T15:46:22.167Z,2.05
2023-03-04T15:48:49.560Z,1.60
2023-03-04T15:51:22.329Z,1.23
2023-03-04T15:53:59.088Z,1.60
2023-03-04T15:56:30.210Z,1.23
2023-03-04T15:59:04.286Z,1.33
2023-03-04T16:01:31.194Z,1.25
2023-03-04T16:03:58.022Z,1.20
2023-03-04T16:06:30.697Z,1.17
2023-03-04T16:08:59.695Z,1.83
2023-03-04T16:11:32.634Z,1.70
2023-03-04T16:13:59.439Z,1.90
2023-03-04T16:16:26.316Z,1.80
2023-03-04T16:18:53.109Z,1.85
2023-03-04T16:21:23.447Z,1.35
2023-03-04T16:23:52.201Z,1.50
2023-03-04T16:26:22.250Z,1.50
2023-03-04T16:28:50.300Z,1.67
2023-03-04T16:31:18.746Z,1.02
2023-03-04T16:33:45.985Z,0.95
2023-03-04T16:36:20.281Z,1.08
2023-03-04T16:38:47.891Z,0.90
2023-03-04T16:41:17.315Z,0.93
2023-03-04T16:43:44.508Z,1.20
2023-03-04T16:46:13.599Z,0.98
2023-03-04T16:48:41.294Z,1.00
2023-03-04T16:51:19.270Z,1.05
2023-03-04T16:53:54.807Z,1.77
2023-03-04T16:56:22.736Z,0.85
2023-03-04T16:58:49.853Z,0.90
2023-03-04T17:01:29.163Z,1.30
2023-03-04T17:03:56.760Z,1.98
2023-03-04T17:06:25.220Z,1.40
2023-03-04T17:08:51.978Z,1.20
2023-03-04T17:11:24.016Z,0.98
2023-03-04T17:13:51.956Z,1.63
2023-03-04T17:16:19.471Z,1.27
2023-03-04T17:18:46.535Z,1.20
2023-03-04T17:21:18.289Z,1.02
2023-03-04T17:23:45.165Z,1.85
2023-03-04T17:26:13.510Z,1.20
2023-03-04T17:28:40.351Z,1.10
2023-03-04T17:31:12.600Z,1.10
2023-03-04T17:33:40.019Z,1.20
2023-03-04T17:36:09.940Z,1.50
2023-03-04T17:38:38.253Z,1.55
2023-03-04T17:41:08.323Z,1.63
2023-03-04T17:43:35.239Z,1.48
2023-03-04T17:46:08.002Z,1.83
2023-03-04T17:48:35.226Z,1.20
2023-03-04T17:51:02.676Z,1.58
2023-03-04T17:53:29.707Z,1.65
2023-03-04T17:56:01.075Z,1.75
2023-03-04T17:58:30.922Z,1.58
2023-03-04T18:01:17.608Z,1.88
2023-03-04T18:03:45.174Z,1.65
2023-03-04T18:06:12.474Z,1.65
2023-03-04T18:08:39.347Z,1.60
2023-03-04T18:11:06.502Z,1.48
2023-03-04T18:13:33.288Z,2.85
2023-03-04T18:16:00.218Z,1.92
2023-03-04T18:18:27.099Z,1.80
2023-03-04T18:21:01.047Z,1.30
2023-03-04T18:23:29.062Z,1.90
2023-03-04T18:25:57.464Z,2.03
2023-03-04T18:28:25.618Z,2.17
2023-03-04T18:30:54.037Z,2.28
2023-03-04T18:33:21.735Z,1.65
2023-03-04T18:35:48.835Z,1.65
2023-03-04T18:38:15.921Z,1.75
2023-03-04T18:40:44.283Z,1.60
2023-03-04T18:43:11.143Z,2.08
2023-03-04T18:45:38.018Z,1.77
2023-03-04T18:48:05.562Z,1.70
2023-03-04T18:50:32.406Z,1.80
2023-03-04T18:52:59.281Z,2.03
2023-03-04T18:55:26.844Z,1.92
2023-03-04T18:57:58.057Z,1.88
2023-03-04T19:00:25.503Z,1.58
2023-03-04T19:03:08.525Z,1.50
2023-03-04T19:05:36.090Z,1.20
2023-03-04T19:08:03.658Z,1.50
2023-03-04T19:10:30.824Z,1.40
2023-03-04T19:12:59.447Z,1.40
2023-03-04T19:15:28.315Z,1.70
2023-03-04T19:17:55.304Z,1.45
2023-03-04T19:20:22.189Z,1.85
2023-03-04T19:22:49.097Z,1.90
2023-03-04T19:25:15.907Z,2.63
2023-03-04T19:27:42.760Z,1.80
2023-03-04T19:30:10.441Z,1.63
2023-03-04T19:32:37.321Z,1.90
2023-03-04T19:35:04.441Z,1.70
2023-03-04T19:37:31.338Z,2.05
2023-03-04T19:39:58.155Z,1.88
2023-03-04T19:42:25.007Z,2.03
2023-03-04T19:44:51.853Z,2.05
2023-03-04T19:47:18.804Z,2.22
2023-03-04T19:49:45.969Z,2.40
2023-03-04T19:52:12.801Z,2.33
2023-03-04T19:54:39.804Z,1.98
2023-03-04T19:57:06.712Z,1.85
2023-03-04T19:59:36.041Z,1.92
2023-03-04T20:02:03.187Z,1.95
2023-03-04T20:04:30.034Z,3.20
2023-03-04T20:06:56.837Z,2.25
2023-03-04T20:09:24.515Z,1.95
2023-03-04T20:11:58.238Z,2.03
2023-03-04T20:14:30.375Z,2.22
2023-03-04T20:17:01.554Z,2.92
2023-03-04T20:19:34.423Z,2.20
2023-03-04T20:22:02.015Z,1.88
2023-03-04T20:24:29.170Z,2.20
2023-03-04T20:26:56.030Z,2.13
2023-03-04T20:29:23.171Z,2.00
2023-03-04T20:31:50.099Z,1.77
2023-03-04T20:34:17.041Z,1.40
2023-03-04T20:36:43.952Z,1.77
2023-03-04T20:39:26.890Z,2.45
2023-03-04T20:41:55.372Z,2.10
2023-03-04T20:44:22.253Z,1.95
2023-03-04T20:46:49.096Z,2.35
2023-03-04T20:49:23.240Z,2.25
2023-03-04T20:51:52.087Z,2.70
2023-03-04T20:54:19.509Z,2.30
2023-03-04T20:56:47.009Z,2.58
2023-03-04T20:59:14.129Z,2.30
2023-03-04T21:01:44.265Z,1.80
2023-03-04T21:04:11.590Z,1.52
2023-03-04T21:06:39.520Z,2.60
2023-03-04T21:09:12.975Z,1.92
2023-03-04T21:11:41.692Z,1.85
2023-03-04T21:14:19.572Z,1.67
2023-03-04T21:16:46.681Z,1.70
2023-03-04T21:19:22.222Z,2.00
2023-03-04T21:21:51.511Z,1.90
2023-03-04T21:24:22.669Z,1.73
2023-03-04T21:26:50.291Z,1.80
2023-03-04T21:29:22.597Z,2.10
2023-03-04T21:32:22.360Z,1.90
2023-03-04T21:34:52.123Z,1.58
2023-03-04T21:37:21.436Z,1.90
2023-03-04T21:39:48.333Z,2.42
2023-03-04T21:42:15.245Z,4.43
2023-03-04T21:44:50.793Z,2.97
2023-03-04T21:47:20.805Z,2.50
2023-03-04T21:49:48.488Z,2.67
2023-03-04T21:52:15.690Z,2.53
2023-03-04T21:54:42.617Z,2.10
2023-03-04T21:57:09.636Z,2.45
2023-03-04T21:59:38.375Z,2.58
2023-03-04T22:02:10.470Z,2.17
2023-03-04T22:04:37.281Z,2.40
2023-03-04T22:07:04.098Z,2.88
2023-03-04T22:09:30.883Z,1.60
2023-03-04T22:11:57.676Z,1.95
2023-03-04T22:14:25.424Z,1.95
2023-03-04T22:16:55.806Z,2.13
2023-03-04T22:19:26.265Z,1.73
2023-03-04T22:21:53.803Z,2.50
2023-03-04T22:24:21.374Z,2.20
2023-03-04T22:26:48.741Z,1.50
2023-03-04T22:29:15.667Z,2.05
2023-03-04T22:31:42.714Z,1.50
2023-03-04T22:34:15.392Z,2.10
2023-03-04T22:36:45.668Z,1.90
2023-03-04T22:39:16.910Z,2.38
2023-03-04T22:41:44.707Z,2.15
2023-03-04T22:44:12.058Z,2.20
2023-03-04T22:46:40.046Z,2.30
2023-03-04T22:49:10.443Z,2.00
2023-03-04T22:51:38.470Z,2.38
2023-03-04T22:54:05.368Z,2.88
2023-03-04T22:56:32.313Z,2.92
2023-03-04T22:58:59.869Z,2.53
2023-03-04T23:01:26.682Z,2.10
2023-03-04T23:03:53.563Z,2.50
2023-03-04T23:06:31.569Z,2.45
2023-03-04T23:08:59.766Z,2.28
2023-03-04T23:11:33.127Z,2.22
2023-03-04T23:14:02.196Z,1.63
2023-03-04T23:16:29.332Z,2.08
2023-03-04T23:18:58.169Z,1.73
2023-03-04T23:21:28.173Z,2.60
2023-03-04T23:23:55.628Z,1.88
2023-03-04T23:26:29.320Z,2.15
2023-03-04T23:28:57.203Z,2.42
2023-03-04T23:31:25.642Z,1.80
2023-03-04T23:33:57.112Z,2.65
2023-03-04T23:36:29.162Z,2.50
2023-03-04T23:38:57.373Z,2.42
2023-03-04T23:41:29.240Z,2.63
2023-03-04T23:43:59.177Z,2.60
2023-03-04T23:46:26.859Z,2.60
2023-03-04T23:48:54.833Z,2.53
2023-03-04T23:51:26.261Z,2.65
2023-03-04T23:53:53.122Z,2.17
2023-03-04T23:56:25.095Z,2.78
2023-03-04T23:58:52.144Z,2.30
